sensor_id;sensor_type;location;lat;lon;timestamp;pressure;altitude;pressure_sealevel;temperature;humidity
30081;BME280;16902;50.816;12.828;2022-12-07T00:01:46;97550.38;;;0.87;100.00
30081;BME280;16902;50.816;12.828;2022-12-07T00:06:51;97546.63;;;0.91;100.00
30081;BME280;16902;50.816;12.828;2022-12-07T00:11:54;97534.63;;;0.91;100.00
30081;BME280;16902;50.816;12.828;2022-12-07T00:16:55;97529.63;;;0.90;100.00
30081;BME280;16902;50.816;12.828;2022-12-07T00:21:57;97525.47;;;0.89;100.00
30081;BME280;16902;50.816;12.828;2022-12-07T00:26:59;97520.56;;;0.86;100.00
30081;BME280;16902;50.816;12.828;2022-12-07T00:32:00;97520.94;;;0.81;100.00
30081;BME280;16902;50.816;12.828;2022-12-07T00:37:02;97513.03;;;0.84;100.00
30081;BME280;16902;50.816;12.828;2022-12-07T00:42:04;97512.31;;;0.82;100.00
30081;BME280;16902;50.816;12.828;2022-12-07T00:47:05;97507.09;;;0.84;100.00
30081;BME280;16902;50.816;12.828;2022-12-07T00:52:07;97511.28;;;0.85;100.00
30081;BME280;16902;50.816;12.828;2022-12-07T00:57:09;97506.94;;;0.85;100.00
30081;BME280;16902;50.816;12.828;2022-12-07T01:02:10;97495.09;;;0.84;100.00
30081;BME280;16902;50.816;12.828;2022-12-07T01:07:12;97494.38;;;0.82;100.00
30081;BME280;16902;50.816;12.828;2022-12-07T01:12:13;97493.28;;;0.75;100.00
30081;BME280;16902;50.816;12.828;2022-12-07T01:17:15;97495.97;;;0.73;100.00
30081;BME280;16902;50.816;12.828;2022-12-07T01:22:17;97500.66;;;0.68;100.00
30081;BME280;16902;50.816;12.828;2022-12-07T01:27:18;97501.03;;;0.64;100.00
30081;BME280;16902;50.816;12.828;2022-12-07T01:32:20;97493.06;;;0.67;100.00
30081;BME280;16902;50.816;12.828;2022-12-07T01:37:22;97491.22;;;0.69;100.00
30081;BME280;16902;50.816;12.828;2022-12-07T01:42:23;97488.75;;;0.67;100.00
30081;BME280;16902;50.816;12.828;2022-12-07T01:47:25;97493.63;;;0.70;100.00
30081;BME280;16902;50.816;12.828;2022-12-07T01:52:30;97501.09;;;0.73;100.00
30081;BME280;16902;50.816;12.828;2022-12-07T01:57:34;97489.59;;;0.68;100.00
30081;BME280;16902;50.816;12.828;2022-12-07T02:02:44;97480.47;;;0.54;100.00
30081;BME280;16902;50.816;12.828;2022-12-07T02:07:47;97485.59;;;0.43;100.00
30081;BME280;16902;50.816;12.828;2022-12-07T02:13:21;97477.03;;;0.33;100.00
30081;BME280;16902;50.816;12.828;2022-12-07T02:18:51;97476.41;;;0.19;100.00
30081;BME280;16902;50.816;12.828;2022-12-07T02:29:30;97462.97;;;-0.05;100.00
30081;BME280;16902;50.816;12.828;2022-12-07T02:39:54;97456.03;;;-0.26;100.00
30081;BME280;16902;50.816;12.828;2022-12-07T02:45:00;97439.78;;;-0.36;100.00
30081;BME280;16902;50.816;12.828;2022-12-07T02:50:04;97446.56;;;-0.46;100.00
30081;BME280;16902;50.816;12.828;2022-12-07T02:55:07;97447.97;;;-0.53;100.00
30081;BME280;16902;50.816;12.828;2022-12-07T03:00:14;97448.19;;;-0.56;100.00
30081;BME280;16902;50.816;12.828;2022-12-07T03:11:00;97438.44;;;-0.62;100.00
30081;BME280;16902;50.816;12.828;2022-12-07T03:21:34;97438.81;;;-0.67;100.00
30081;BME280;16902;50.816;12.828;2022-12-07T03:26:44;97427.75;;;-0.67;100.00
30081;BME280;16902;50.816;12.828;2022-12-07T03:31:56;97422.53;;;-0.66;100.00
30081;BME280;16902;50.816;12.828;2022-12-07T03:42:38;97424.38;;;-0.68;100.00
30081;BME280;16902;50.816;12.828;2022-12-07T03:48:00;97421.81;;;-0.68;100.00
30081;BME280;16902;50.816;12.828;2022-12-07T03:53:15;97420.19;;;-0.69;100.00
30081;BME280;16902;50.816;12.828;2022-12-07T03:58:21;97412.97;;;-0.64;100.00
30081;BME280;16902;50.816;12.828;2022-12-07T04:03:23;97403.22;;;-0.59;100.00
30081;BME280;16902;50.816;12.828;2022-12-07T04:08:25;97398.69;;;-0.55;100.00
30081;BME280;16902;50.816;12.828;2022-12-07T04:13:27;97391.47;;;-0.50;100.00
30081;BME280;16902;50.816;12.828;2022-12-07T04:18:29;97391.22;;;-0.47;100.00
30081;BME280;16902;50.816;12.828;2022-12-07T04:23:31;97373.44;;;-0.48;100.00
30081;BME280;16902;50.816;12.828;2022-12-07T04:28:33;97372.44;;;-0.57;100.00
30081;BME280;16902;50.816;12.828;2022-12-07T04:33:35;97364.00;;;-0.80;100.00
30081;BME280;16902;50.816;12.828;2022-12-07T04:38:37;97370.03;;;-0.92;100.00
30081;BME280;16902;50.816;12.828;2022-12-07T04:43:39;97367.84;;;-0.86;100.00
30081;BME280;16902;50.816;12.828;2022-12-07T04:48:41;97365.13;;;-0.73;100.00
30081;BME280;16902;50.816;12.828;2022-12-07T04:53:43;97353.72;;;-0.58;100.00
30081;BME280;16902;50.816;12.828;2022-12-07T04:58:46;97341.47;;;-0.43;100.00
30081;BME280;16902;50.816;12.828;2022-12-07T05:03:48;97336.91;;;-0.28;100.00
30081;BME280;16902;50.816;12.828;2022-12-07T05:08:50;97349.41;;;-0.14;100.00
30081;BME280;16902;50.816;12.828;2022-12-07T05:13:52;97352.84;;;-0.04;100.00
30081;BME280;16902;50.816;12.828;2022-12-07T05:18:54;97353.94;;;0.04;100.00
30081;BME280;16902;50.816;12.828;2022-12-07T05:23:56;97351.28;;;0.05;100.00
30081;BME280;16902;50.816;12.828;2022-12-07T05:28:57;97339.16;;;0.07;100.00
30081;BME280;16902;50.816;12.828;2022-12-07T05:33:59;97339.59;;;0.12;100.00
30081;BME280;16902;50.816;12.828;2022-12-07T05:39:02;97330.31;;;0.11;100.00
30081;BME280;16902;50.816;12.828;2022-12-07T05:44:05;97328.19;;;0.16;100.00
30081;BME280;16902;50.816;12.828;2022-12-07T05:49:07;97333.31;;;0.16;100.00
30081;BME280;16902;50.816;12.828;2022-12-07T05:54:09;97331.69;;;0.15;100.00
30081;BME280;16902;50.816;12.828;2022-12-07T05:59:10;97328.44;;;0.13;100.00
30081;BME280;16902;50.816;12.828;2022-12-07T06:04:26;97328.44;;;0.13;100.00
30081;BME280;16902;50.816;12.828;2022-12-07T06:09:29;97327.94;;;0.19;100.00
30081;BME280;16902;50.816;12.828;2022-12-07T06:14:31;97333.31;;;0.16;100.00
30081;BME280;16902;50.816;12.828;2022-12-07T06:19:33;97317.81;;;0.18;100.00
30081;BME280;16902;50.816;12.828;2022-12-07T06:24:35;97318.50;;;0.20;100.00
30081;BME280;16902;50.816;12.828;2022-12-07T06:29:37;97326.06;;;0.21;100.00
30081;BME280;16902;50.816;12.828;2022-12-07T06:34:39;97321.06;;;0.20;100.00
30081;BME280;16902;50.816;12.828;2022-12-07T06:39:41;97322.25;;;0.16;100.00
30081;BME280;16902;50.816;12.828;2022-12-07T06:44:42;97328.19;;;0.16;100.00
30081;BME280;16902;50.816;12.828;2022-12-07T06:49:44;97334.41;;;0.23;100.00
30081;BME280;16902;50.816;12.828;2022-12-07T06:54:46;97326.78;;;0.33;100.00
30081;BME280;16902;50.816;12.828;2022-12-07T06:59:48;97342.66;;;0.27;100.00
30081;BME280;16902;50.816;12.828;2022-12-07T07:04:50;97346.66;;;0.20;100.00
30081;BME280;16902;50.816;12.828;2022-12-07T07:09:51;97347.91;;;0.25;100.00
30081;BME280;16902;50.816;12.828;2022-12-07T07:14:53;97352.81;;;0.38;100.00
30081;BME280;16902;50.816;12.828;2022-12-07T07:19:55;97357.31;;;0.46;100.00
30081;BME280;16902;50.816;12.828;2022-12-07T07:24:57;97352.50;;;0.52;100.00
30081;BME280;16902;50.816;12.828;2022-12-07T07:29:59;97359.00;;;0.57;100.00
30081;BME280;16902;50.816;12.828;2022-12-07T07:35:01;97361.44;;;0.58;100.00
30081;BME280;16902;50.816;12.828;2022-12-07T07:40:03;97370.47;;;0.62;100.00
30081;BME280;16902;50.816;12.828;2022-12-07T07:45:06;97365.13;;;0.65;100.00
30081;BME280;16902;50.816;12.828;2022-12-07T07:50:08;97362.97;;;0.70;100.00
30081;BME280;16902;50.816;12.828;2022-12-07T07:55:11;97358.41;;;0.74;100.00
30081;BME280;16902;50.816;12.828;2022-12-07T08:00:14;97364.63;;;0.81;100.00
30081;BME280;16902;50.816;12.828;2022-12-07T08:05:16;97371.28;;;0.84;100.00
30081;BME280;16902;50.816;12.828;2022-12-07T08:10:18;97372.09;;;0.84;100.00
30081;BME280;16902;50.816;12.828;2022-12-07T08:15:20;97380.56;;;0.85;100.00
30081;BME280;16902;50.816;12.828;2022-12-07T08:20:22;97370.47;;;0.83;100.00
30081;BME280;16902;50.816;12.828;2022-12-07T08:25:24;97378.56;;;0.88;100.00
30081;BME280;16902;50.816;12.828;2022-12-07T08:30:27;97366.84;;;0.95;100.00
30081;BME280;16902;50.816;12.828;2022-12-07T08:35:29;97381.59;;;1.03;100.00
30081;BME280;16902;50.816;12.828;2022-12-07T08:40:31;97381.63;;;1.13;100.00
30081;BME280;16902;50.816;12.828;2022-12-07T08:45:33;97386.38;;;1.17;100.00
30081;BME280;16902;50.816;12.828;2022-12-07T08:50:37;97394.41;;;1.43;100.00
30081;BME280;16902;50.816;12.828;2022-12-07T08:55:44;97385.34;;;1.39;100.00
30081;BME280;16902;50.816;12.828;2022-12-07T09:00:46;97388.31;;;1.35;100.00
30081;BME280;16902;50.816;12.828;2022-12-07T09:05:48;97388.06;;;1.38;100.00
30081;BME280;16902;50.816;12.828;2022-12-07T09:10:50;97379.34;;;1.69;100.00
30081;BME280;16902;50.816;12.828;2022-12-07T09:15:52;97385.03;;;1.92;100.00
30081;BME280;16902;50.816;12.828;2022-12-07T09:20:56;97391.09;;;2.20;100.00
30081;BME280;16902;50.816;12.828;2022-12-07T09:26:04;97383.53;;;2.28;100.00
30081;BME280;16902;50.816;12.828;2022-12-07T09:31:11;97397.75;;;2.13;100.00
30081;BME280;16902;50.816;12.828;2022-12-07T09:36:25;97376.38;;;2.03;100.00
30081;BME280;16902;50.816;12.828;2022-12-07T09:41:27;97383.66;;;1.98;100.00
30081;BME280;16902;50.816;12.828;2022-12-07T09:46:35;97380.84;;;2.11;100.00
30081;BME280;16902;50.816;12.828;2022-12-07T09:51:38;97390.84;;;2.14;100.00
30081;BME280;16902;50.816;12.828;2022-12-07T09:56:40;97376.09;;;2.35;100.00
30081;BME280;16902;50.816;12.828;2022-12-07T10:01:42;97373.22;;;2.48;100.00
30081;BME280;16902;50.816;12.828;2022-12-07T10:06:44;97366.56;;;2.55;100.00
30081;BME280;16902;50.816;12.828;2022-12-07T10:12:07;97361.34;;;2.47;100.00
30081;BME280;16902;50.816;12.828;2022-12-07T10:22:30;97348.19;;;2.50;100.00
30081;BME280;16902;50.816;12.828;2022-12-07T10:27:32;97350.75;;;2.60;100.00
30081;BME280;16902;50.816;12.828;2022-12-07T10:32:36;97353.28;;;2.69;100.00
30081;BME280;16902;50.816;12.828;2022-12-07T10:37:41;97352.09;;;2.64;100.00
30081;BME280;16902;50.816;12.828;2022-12-07T10:43:03;97339.59;;;2.78;100.00
30081;BME280;16902;50.816;12.828;2022-12-07T10:53:52;97337.88;;;2.69;100.00
30081;BME280;16902;50.816;12.828;2022-12-07T11:04:55;97331.06;;;2.78;100.00
30081;BME280;16902;50.816;12.828;2022-12-07T11:10:55;97325.47;;;2.92;100.00
30081;BME280;16902;50.816;12.828;2022-12-07T11:16:45;97321.66;;;2.96;100.00
30081;BME280;16902;50.816;12.828;2022-12-07T11:21:31;97325.56;;;3.00;100.00
30081;BME280;16902;50.816;12.828;2022-12-07T11:32:02;97328.75;;;2.84;100.00
30081;BME280;16902;50.816;12.828;2022-12-07T11:37:13;97308.16;;;2.84;100.00
30081;BME280;16902;50.816;12.828;2022-12-07T11:42:23;97307.91;;;2.88;100.00
30081;BME280;16902;50.816;12.828;2022-12-07T11:47:45;97307.94;;;2.78;100.00
30081;BME280;16902;50.816;12.828;2022-12-07T11:52:55;97306.28;;;2.87;100.00
30081;BME280;16902;50.816;12.828;2022-12-07T11:58:08;97309.03;;;3.03;100.00
30081;BME280;16902;50.816;12.828;2022-12-07T12:03:26;97298.13;;;3.19;100.00
30081;BME280;16902;50.816;12.828;2022-12-07T12:09:12;97287.69;;;3.38;100.00
30081;BME280;16902;50.816;12.828;2022-12-07T12:20:00;97286.84;;;3.02;100.00
30081;BME280;16902;50.816;12.828;2022-12-07T12:25:10;97283.69;;;2.90;100.00
30081;BME280;16902;50.816;12.828;2022-12-07T12:35:36;97279.03;;;2.94;100.00
30081;BME280;16902;50.816;12.828;2022-12-07T12:40:39;97272.13;;;2.94;100.00
30081;BME280;16902;50.816;12.828;2022-12-07T12:45:49;97277.66;;;2.99;100.00
30081;BME280;16902;50.816;12.828;2022-12-07T13:02:24;97271.91;;;3.15;100.00
30081;BME280;16902;50.816;12.828;2022-12-07T13:23:54;97250.50;;;3.32;100.00
30081;BME280;16902;50.816;12.828;2022-12-07T13:29:16;97246.38;;;3.22;100.00
30081;BME280;16902;50.816;12.828;2022-12-07T13:34:41;97252.06;;;3.25;100.00
30081;BME280;16902;50.816;12.828;2022-12-07T13:39:49;97247.56;;;3.27;100.00
30081;BME280;16902;50.816;12.828;2022-12-07T13:44:52;97258.97;;;3.25;100.00
30081;BME280;16902;50.816;12.828;2022-12-07T13:49:56;97250.50;;;3.32;100.00
30081;BME280;16902;50.816;12.828;2022-12-07T14:00:01;97251.75;;;3.28;100.00
30081;BME280;16902;50.816;12.828;2022-12-07T14:05:23;97246.66;;;3.19;100.00
30081;BME280;16902;50.816;12.828;2022-12-07T14:10:34;97233.59;;;3.12;100.00
30081;BME280;16902;50.816;12.828;2022-12-07T14:15:36;97233.22;;;3.07;100.00
30081;BME280;16902;50.816;12.828;2022-12-07T14:20:40;97236.00;;;3.14;100.00
30081;BME280;16902;50.816;12.828;2022-12-07T14:25:47;97235.94;;;3.05;100.00
30081;BME280;16902;50.816;12.828;2022-12-07T14:30:52;97250.31;;;2.98;100.00
30081;BME280;16902;50.816;12.828;2022-12-07T14:35:54;97254.50;;;2.99;100.00
30081;BME280;16902;50.816;12.828;2022-12-07T14:40:57;97251.25;;;2.79;100.00
30081;BME280;16902;50.816;12.828;2022-12-07T14:46:19;97243.72;;;2.68;100.00
30081;BME280;16902;50.816;12.828;2022-12-07T14:51:21;97248.50;;;2.63;100.00
30081;BME280;16902;50.816;12.828;2022-12-07T14:56:44;97249.28;;;2.64;100.00
30081;BME280;16902;50.816;12.828;2022-12-07T15:01:47;97250.53;;;2.60;100.00
30081;BME280;16902;50.816;12.828;2022-12-07T15:07:00;97263.03;;;2.45;100.00
30081;BME280;16902;50.816;12.828;2022-12-07T15:12:02;97266.84;;;2.31;100.00
30081;BME280;16902;50.816;12.828;2022-12-07T15:17:05;97269.03;;;2.26;100.00
30081;BME280;16902;50.816;12.828;2022-12-07T15:22:12;97268.50;;;2.22;100.00
30081;BME280;16902;50.816;12.828;2022-12-07T15:27:14;97265.03;;;2.14;100.00
30081;BME280;16902;50.816;12.828;2022-12-07T15:32:15;97270.00;;;2.15;100.00
30081;BME280;16902;50.816;12.828;2022-12-07T15:37:17;97266.25;;;2.10;100.00
30081;BME280;16902;50.816;12.828;2022-12-07T15:42:19;97268.81;;;2.10;100.00
30081;BME280;16902;50.816;12.828;2022-12-07T15:47:21;97264.63;;;2.09;100.00
30081;BME280;16902;50.816;12.828;2022-12-07T15:52:23;97260.16;;;2.11;100.00
30081;BME280;16902;50.816;12.828;2022-12-07T15:57:26;97260.28;;;2.19;100.00
30081;BME280;16902;50.816;12.828;2022-12-07T16:02:28;97256.22;;;2.16;100.00
30081;BME280;16902;50.816;12.828;2022-12-07T16:07:30;97263.38;;;2.13;100.00
30081;BME280;16902;50.816;12.828;2022-12-07T16:12:31;97260.69;;;2.14;100.00
30081;BME280;16902;50.816;12.828;2022-12-07T16:17:33;97265.53;;;2.17;100.00
30081;BME280;16902;50.816;12.828;2022-12-07T16:22:35;97259.34;;;2.10;100.00
30081;BME280;16902;50.816;12.828;2022-12-07T16:27:37;97253.69;;;2.06;100.00
30081;BME280;16902;50.816;12.828;2022-12-07T16:32:39;97271.09;;;2.03;100.00
30081;BME280;16902;50.816;12.828;2022-12-07T16:37:43;97274.63;;;2.02;100.00
30081;BME280;16902;50.816;12.828;2022-12-07T16:42:45;97274.78;;;2.00;100.00
30081;BME280;16902;50.816;12.828;2022-12-07T16:47:47;97274.50;;;2.03;100.00
30081;BME280;16902;50.816;12.828;2022-12-07T16:52:49;97270.84;;;2.06;100.00
30081;BME280;16902;50.816;12.828;2022-12-07T16:57:50;97267.47;;;2.05;100.00
30081;BME280;16902;50.816;12.828;2022-12-07T17:02:52;97281.91;;;2.06;100.00
30081;BME280;16902;50.816;12.828;2022-12-07T17:07:57;97278.28;;;1.99;100.00
30081;BME280;16902;50.816;12.828;2022-12-07T17:12:59;97275.75;;;1.90;100.00
30081;BME280;16902;50.816;12.828;2022-12-07T17:18:01;97268.16;;;1.78;100.00
30081;BME280;16902;50.816;12.828;2022-12-07T17:23:02;97267.78;;;1.73;100.00
30081;BME280;16902;50.816;12.828;2022-12-07T17:28:04;97268.06;;;1.70;100.00
30081;BME280;16902;50.816;12.828;2022-12-07T17:33:06;97261.44;;;1.68;100.00
30081;BME280;16902;50.816;12.828;2022-12-07T17:38:08;97266.44;;;1.69;100.00
30081;BME280;16902;50.816;12.828;2022-12-07T17:43:10;97266.31;;;1.61;100.00
30081;BME280;16902;50.816;12.828;2022-12-07T17:48:11;97272.38;;;1.60;100.00
30081;BME280;16902;50.816;12.828;2022-12-07T17:53:13;97265.09;;;1.65;100.00
30081;BME280;16902;50.816;12.828;2022-12-07T17:58:15;97266.16;;;1.72;100.00
30081;BME280;16902;50.816;12.828;2022-12-07T18:03:17;97277.63;;;1.78;100.00
30081;BME280;16902;50.816;12.828;2022-12-07T18:08:19;97272.22;;;1.81;100.00
30081;BME280;16902;50.816;12.828;2022-12-07T18:13:21;97266.53;;;1.87;100.00
30081;BME280;16902;50.816;12.828;2022-12-07T18:18:38;97267.75;;;1.83;100.00
30081;BME280;16902;50.816;12.828;2022-12-07T18:23:42;97264.38;;;1.83;100.00
30081;BME280;16902;50.816;12.828;2022-12-07T18:28:44;97264.38;;;1.83;100.00
30081;BME280;16902;50.816;12.828;2022-12-07T18:33:47;97266.16;;;1.82;100.00
30081;BME280;16902;50.816;12.828;2022-12-07T18:38:49;97270.22;;;1.85;100.00
30081;BME280;16902;50.816;12.828;2022-12-07T18:43:51;97269.81;;;1.79;100.00
30081;BME280;16902;50.816;12.828;2022-12-07T18:48:53;97265.59;;;1.78;100.00
30081;BME280;16902;50.816;12.828;2022-12-07T18:53:57;97260.34;;;1.80;100.00
30081;BME280;16902;50.816;12.828;2022-12-07T18:59:02;97253.88;;;1.76;100.00
30081;BME280;16902;50.816;12.828;2022-12-07T19:04:23;97256.19;;;1.69;100.00
30081;BME280;16902;50.816;12.828;2022-12-07T19:09:24;97261.44;;;1.68;100.00
30081;BME280;16902;50.816;12.828;2022-12-07T19:14:32;97252.94;;;1.67;100.00
30081;BME280;16902;50.816;12.828;2022-12-07T19:19:43;97254.53;;;1.68;100.00
30081;BME280;16902;50.816;12.828;2022-12-07T19:24:48;97255.34;;;1.69;100.00
30081;BME280;16902;50.816;12.828;2022-12-07T19:29:50;97248.50;;;1.69;100.00
30081;BME280;16902;50.816;12.828;2022-12-07T19:34:52;97245.78;;;1.71;100.00
30081;BME280;16902;50.816;12.828;2022-12-07T19:39:55;97247.78;;;1.67;100.00
30081;BME280;16902;50.816;12.828;2022-12-07T19:44:57;97249.69;;;1.65;100.00
30081;BME280;16902;50.816;12.828;2022-12-07T19:49:59;97239.97;;;1.59;100.00
30081;BME280;16902;50.816;12.828;2022-12-07T19:55:00;97231.59;;;1.57;100.00
30081;BME280;16902;50.816;12.828;2022-12-07T20:00:03;97232.66;;;1.54;100.00
30081;BME280;16902;50.816;12.828;2022-12-07T20:05:05;97238.22;;;1.60;100.00
30081;BME280;16902;50.816;12.828;2022-12-07T20:10:08;97238.47;;;1.66;100.00
30081;BME280;16902;50.816;12.828;2022-12-07T20:15:11;97236.97;;;1.73;100.00
30081;BME280;16902;50.816;12.828;2022-12-07T20:20:13;97234.69;;;1.80;100.00
30081;BME280;16902;50.816;12.828;2022-12-07T20:25:15;97230.06;;;1.84;100.00
30081;BME280;16902;50.816;12.828;2022-12-07T20:30:18;97229.53;;;1.90;100.00
30081;BME280;16902;50.816;12.828;2022-12-07T20:35:20;97225.06;;;1.92;100.00
30081;BME280;16902;50.816;12.828;2022-12-07T20:40:21;97223.19;;;1.94;100.00
30081;BME280;16902;50.816;12.828;2022-12-07T20:45:23;97218.72;;;1.96;100.00
30081;BME280;16902;50.816;12.828;2022-12-07T20:50:25;97213.44;;;1.97;100.00
30081;BME280;16902;50.816;12.828;2022-12-07T20:55:27;97211.00;;;1.96;100.00
30081;BME280;16902;50.816;12.828;2022-12-07T21:00:29;97216.81;;;1.98;100.00
30081;BME280;16902;50.816;12.828;2022-12-07T21:05:32;97219.50;;;1.96;100.00
30081;BME280;16902;50.816;12.828;2022-12-07T21:10:35;97217.91;;;1.95;100.00
30081;BME280;16902;50.816;12.828;2022-12-07T21:15:38;97207.25;;;1.90;100.00
30081;BME280;16902;50.816;12.828;2022-12-07T21:20:40;97203.59;;;1.83;100.00
30081;BME280;16902;50.816;12.828;2022-12-07T21:25:41;97209.28;;;1.77;100.00
30081;BME280;16902;50.816;12.828;2022-12-07T21:30:43;97205.09;;;1.86;100.00
30081;BME280;16902;50.816;12.828;2022-12-07T21:36:06;97206.06;;;1.75;100.00
30081;BME280;16902;50.816;12.828;2022-12-07T21:41:19;97205.53;;;1.62;100.00
30081;BME280;16902;50.816;12.828;2022-12-07T21:46:23;97198.41;;;1.56;100.00
30081;BME280;16902;50.816;12.828;2022-12-07T21:51:33;97197.59;;;1.45;100.00
30081;BME280;16902;50.816;12.828;2022-12-07T21:56:38;97190.72;;;1.46;100.00
30081;BME280;16902;50.816;12.828;2022-12-07T22:01:41;97196.78;;;1.45;100.00
30081;BME280;16902;50.816;12.828;2022-12-07T22:06:46;97191.38;;;1.48;100.00
30081;BME280;16902;50.816;12.828;2022-12-07T22:11:48;97201.88;;;1.54;100.00
30081;BME280;16902;50.816;12.828;2022-12-07T22:16:51;97194.50;;;1.51;100.00
30081;BME280;16902;50.816;12.828;2022-12-07T22:21:53;97190.31;;;1.50;100.00
30081;BME280;16902;50.816;12.828;2022-12-07T22:26:54;97189.50;;;1.50;100.00
30081;BME280;16902;50.816;12.828;2022-12-07T22:31:56;97186.78;;;1.51;100.00
30081;BME280;16902;50.816;12.828;2022-12-07T22:36:58;97187.34;;;1.55;100.00
30081;BME280;16902;50.816;12.828;2022-12-07T22:42:00;97180.16;;;1.59;100.00
30081;BME280;16902;50.816;12.828;2022-12-07T22:47:02;97187.59;;;1.62;100.00
30081;BME280;16902;50.816;12.828;2022-12-07T22:52:04;97180.44;;;1.65;100.00
30081;BME280;16902;50.816;12.828;2022-12-07T22:57:06;97182.03;;;1.66;100.00
30081;BME280;16902;50.816;12.828;2022-12-07T23:02:07;97169.59;;;1.71;100.00
30081;BME280;16902;50.816;12.828;2022-12-07T23:07:09;97170.00;;;1.67;100.00
30081;BME280;16902;50.816;12.828;2022-12-07T23:12:11;97173.94;;;1.71;100.00
30081;BME280;16902;50.816;12.828;2022-12-07T23:17:34;97168.25;;;1.67;100.00
30081;BME280;16902;50.816;12.828;2022-12-07T23:22:36;97155.28;;;1.69;100.00
30081;BME280;16902;50.816;12.828;2022-12-07T23:27:38;97155.56;;;1.66;100.00
30081;BME280;16902;50.816;12.828;2022-12-07T23:32:40;97150.16;;;1.59;100.00
30081;BME280;16902;50.816;12.828;2022-12-07T23:37:41;97144.94;;;1.51;100.00
30081;BME280;16902;50.816;12.828;2022-12-07T23:42:43;97137.91;;;1.43;100.00
30081;BME280;16902;50.816;12.828;2022-12-07T23:47:45;97136.06;;;1.36;100.00
30081;BME280;16902;50.816;12.828;2022-12-07T23:52:47;97137.28;;;1.32;100.00
30081;BME280;16902;50.816;12.828;2022-12-07T23:57:48;97123.34;;;1.34;100.00
